KHLR/HLR METAR and TAF weather

Enter ICAO airport designator
Station Type Date Time Source
KHLR METAR 2020/03/28 08:58 UTC NOAA

KHLR 280858Z AUTO 17010G18KT 10SM BKN160 22/20 A2972 RMK AO2 SLP053 T02240203 55007


Station Type Date Time Source
KHLR Decoded METAR 2020/03/28 08:58 UTC NOAA

Fort Hood, Hood AAF Ft Hood, TX, United States (KHLR) 31-08N 097-42W
Mar 28, 2020 - 04:58 AM EDT / 2020.03.28 0858 UTC
Wind: from the S (170 degrees) at 12 MPH (10 KT) gusting to 21 MPH (18 KT):0
Visibility: 10 mile(s):0
Sky conditions: mostly cloudy
Temperature: 72.3 F (22.4 C)
Dew Point: 68.5 F (20.3 C)
Relative Humidity: 87%
Pressure (altimeter): 29.72 in. Hg (1006 hPa)
Pressure tendency: 0.02 inches (0.7 hPa) lower than three hours ago
ob: KHLR 280858Z AUTO 17010G18KT 10SM BKN160 22/20 A2972 RMK AO2 SLP053 T02240203 55007
cycle: 9

Station Type Date Time Source
KHLR TAF UTC NOAA

Error!

Example: see airport list